AirNav   Advertisement
 
 1431 users online  

NC18 Rat Landing Seaplane Base
Ahoskie, North Carolina, USA


FAA INFORMATION EFFECTIVE 17 AUGUST 2017

Location

FAA Identifier: NC18
Lat/Long: 36-23-22.0000N / 076-54-41.0000W
36-23.366667N / 076-54.683333W
36.3894444 / -76.9113889
(estimated)
Elevation: 14 ft. / 4 m (estimated)
From city: 7 miles NE of AHOSKIE, NC
Time zone: UTC -4 (UTC -5 during Standard Time)
Zip code: 27986

Seaplane Base Operations

Seaplane Base use: Private use. Permission required prior to landing
Activation date: 12/2010
Control tower: no
ARTCC: WASHINGTON CENTER
FSS: RALEIGH FLIGHT SERVICE STATION
Attendance: UNATNDD
Segmented circle: no

Seaplane Base Communications

WX AWOS-3 at ASJ (14 nm SW): 119.075 (252-345-2967)
WX AWOS-3PT at FKN (19 nm N): 124.675 (757-562-8765)

Nearby radio navigation aids

VOR radial/distance  VOR name  Freq  Var
CVIr306/2.2COFIELD VORTAC114.6009W
FKNr175/20.1FRANKLIN VORTAC110.6009W
ECGr290/36.4ELIZABETH CITY VOR/DME112.5007W

 
NDB name  Hdg/Dist  Freq  Var  ID
EMPORIA129/28.326110WELQ . .-.. --.-
WOODVILLE294/30.625410WLLW .-.. .-.. .--
WAKEFIELD184/35.927411WAKQ .- -.- --.-

Seaplane Base Services

Fuel available: 100LL

Runway Information

Runway 12W/30W

Dimensions: 7300 x 500 ft. / 2225 x 152 m
Surface: water
RUNWAY 12W  RUNWAY 30W
Traffic pattern: leftleft

Seaplane Base Ownership and Management from official FAA records

Ownership: Privately-owned
Owner: HENRY JOYNER
327B TUSCARORA RD
WINTON, NC 27986
Phone 252-395-0822
Manager: HENRY JOYNER
327B TUSCARORA RD
WINTON, NC 27986
Phone 252-395-0822

Seaplane Base Operational Statistics

Aircraft based on the field: 1
Single engine airplanes: 1
    

Instrument Procedures

There are no published instrument procedures at NC18.

Some nearby airports with instrument procedures:

KASJ - Tri-County Airport (14 nm SW)
KFKN - Franklin Municipal-John Beverly Rose Airport (19 nm N)
KSFQ - Suffolk Executive Airport (23 nm NE)
KEDE - Northeastern Regional Airport (27 nm SE)
KPVG - Hampton Roads Executive Airport (32 nm NE)
 
Loc | Ops | Rwys | IFR | FBO | Links
Com | Nav | Svcs | Stats | Notes


 
Aerial photo
No photo
 
Sectional chart

 
Airport distance calculator
Flying to Rat Landing Seaplane Base? Find the distance to fly.

From to NC18

Sunrise and sunset
Times for 17-Aug-2017
 Local
(UTC-4)
 Zulu
(UTC)
Morning civil twilight06:0110:01
Sunrise06:2810:28
Sunset19:5523:55
Evening civil twilight20:2300:23

Current date and time
Zulu (UTC)  17-Aug-2017 21:53:19
Local (UTC-4)  17-Aug-2017 17:53:19
 
METAR
KASJ 
14nm SW 
172115Z AUTO 00000KT 10SM 29/26 A2998 RMK AO2 T02860258
KFKN 
19nm N 
172135Z AUTO 16006KT 10SM CLR 27/23 A2997 RMK AO2 T02720229
KSFQ 
23nm NE 
172135Z AUTO 18004KT 10SM BKN070 BKN085 OVC100 29/22 A2998 RMK AO2 T02900222
TAF
KECG 
36nm E 
171730Z 1718/1818 14007KT P6SM SCT150 FM172000 15007KT P6SM BKN040 FM180300 17007KT P6SM SCT150 FM180600 18006KT P6SM BKN100
KNGU 
44nm NE 
1715/1815 18006KT 9999 FEW070 FEW280 QNH2994INS FM180000 16010KT 8000 BR FEW020 SCT070 SCT200 QNH2991INS FM180700 19010KT 3200 BR OVC008 QNH2989INS FM181200 20011KT 9999 VCTS FEW012CB SCT020 SCT050 BKN150 QNH2989INS T33/1720Z T25/1809Z FN20000
NOTAMs
Click for the latest NOTAMs
NOTAMs are issued by the DoD/FAA and will open in a separate window not controlled by AirNav.

 

 
 

Would you like to see your business listed on this page?

 If your business provides an interesting product or service to pilots, flight crews, aircraft, or users of the Rat Landing Seaplane Base, you should consider listing it here.  To start the listing process, click on the button below
 
Add a business
 

Other Pages about Rat Landing Seaplane Base

Update a link
 
Copyright © AirNav, LLC. All rights reserved. Privacy Policy  Contact